»·PEaware :: N982CA KPRC-KBLH

N982CA :: KPRC-KBLH

FLIGHT INFORMATION

Flight Status: Arrived
Operator: Privately registered:
United States
More flights under this callsign
Pilot: Anonymous 15639 (15639)
Aircraft: Unknown
(DA62)
More flights by this aircraft type
Origin: KPRC Love
United States
Destination: KBLH Blythe
United States
More flights between these airports :: More routes between these airports
Route: +
File this flight plan on PilotEdge
Remarks:
Altitude:
(Current/Filed)
6,500ft
Speed:
(Current/Filed)
0kts
Departed: 23-Sep-18 09:22 AM
Arrived: 23-Sep-18 10:12 AM
Distance/Time
Traveled:
130nm/0:50
Distance/Time
To Go:
Arrived

Flight Plot

Page will automatically refresh every two minutes.

Flight plan parsing failed; only flown route is shown


Map Options




Map Legend


Flown Route
Filed Route
Departure Airport
Arrival Airport
Navaid (VOR, NDB)
Fix

Horizontal Profiles

Position Reports

Time Latitude Longitude Heading Altitude Ground
Speed
23-Sep-18 09:14 34.646714 -112.424193 308 5045ft 0kts
23-Sep-18 09:15 34.646714 -112.424193 308 5045ft 0kts
23-Sep-18 09:16 34.646878 -112.424747 306 5045ft 0kts
23-Sep-18 09:17 34.647601 -112.425033 43 5045ft 8kts
23-Sep-18 09:18 34.647937 -112.423475 130 5045ft 8kts
23-Sep-18 09:19 34.646275 -112.421473 137 5045ft 11kts
23-Sep-18 09:20 34.643880 -112.418715 136 5045ft 10kts
23-Sep-18 09:21 34.643520 -112.418411 107 5045ft 0kts
23-Sep-18 09:22 34.643520 -112.418411 107 5045ft 0kts
23-Sep-18 09:23 34.643968 -112.418048 31 5045ft 4kts
23-Sep-18 09:24 34.655378 -112.431199 316 5301ft 97kts
23-Sep-18 09:25 34.676590 -112.459717 287 6100ft 127kts
23-Sep-18 09:26 34.677755 -112.506659 268 6743ft 150kts
23-Sep-18 09:27 34.678147 -112.557846 265 7471ft 152kts
23-Sep-18 09:28 34.658796 -112.600910 222 8102ft 147kts
23-Sep-18 09:29 34.630922 -112.638365 226 8512ft 160kts
23-Sep-18 09:30 34.607363 -112.687216 235 8502ft 170kts
23-Sep-18 09:31 34.584249 -112.737024 236 8500ft 169kts
23-Sep-18 09:32 34.561429 -112.786253 238 8499ft 165kts
23-Sep-18 09:33 34.539137 -112.834471 238 8500ft 163kts
23-Sep-18 09:34 34.516878 -112.882519 238 8500ft 163kts
23-Sep-18 09:35 34.494595 -112.930550 238 8500ft 163kts
23-Sep-18 09:36 34.472350 -112.978421 238 8500ft 163kts
23-Sep-18 09:37 34.450016 -113.026432 238 8499ft 163kts
23-Sep-18 09:38 34.427749 -113.074243 238 8499ft 163kts
23-Sep-18 09:39 34.405376 -113.122215 238 8499ft 163kts
23-Sep-18 09:40 34.382976 -113.170176 238 8499ft 163kts
23-Sep-18 09:41 34.360086 -113.217577 234 8499ft 163kts
23-Sep-18 09:42 34.335957 -113.264096 237 8499ft 163kts
23-Sep-18 09:43 34.312563 -113.311300 237 8499ft 164kts
23-Sep-18 09:44 34.289394 -113.358782 238 8480ft 165kts
23-Sep-18 09:45 34.265622 -113.407704 238 8213ft 170kts
23-Sep-18 09:46 34.242200 -113.455949 238 8187ft 165kts
23-Sep-18 09:47 34.218753 -113.504036 238 8188ft 166kts
23-Sep-18 09:48 34.195249 -113.552530 239 7984ft 168kts
23-Sep-18 09:49 34.171414 -113.601564 239 7478ft 169kts
23-Sep-18 09:50 34.147601 -113.650388 239 6972ft 169kts
23-Sep-18 09:51 34.123788 -113.699143 239 6473ft 169kts
23-Sep-18 09:52 34.099894 -113.747994 240 6198ft 168kts
23-Sep-18 09:53 34.076745 -113.795236 240 6456ft 150kts
23-Sep-18 09:54 34.054727 -113.840132 239 6538ft 161kts
23-Sep-18 09:55 34.031615 -113.887219 239 6536ft 164kts
23-Sep-18 09:56 34.008364 -113.934542 239 6536ft 164kts
23-Sep-18 09:57 33.986427 -113.982704 239 6538ft 165kts
23-Sep-18 09:58 33.962999 -114.029990 239 6536ft 164kts
23-Sep-18 09:59 33.939433 -114.077524 238 6501ft 167kts
23-Sep-18 10:00 33.915113 -114.126504 236 6509ft 172kts
23-Sep-18 10:01 33.890370 -114.176210 236 6509ft 172kts
23-Sep-18 10:02 33.865643 -114.225401 229 6505ft 171kts
23-Sep-18 10:03 33.832081 -114.265542 222 6510ft 170kts
23-Sep-18 10:04 33.798498 -114.305805 222 6510ft 170kts
23-Sep-18 10:05 33.764624 -114.346418 222 6050ft 174kts
23-Sep-18 10:06 33.730154 -114.387692 223 5291ft 176kts
23-Sep-18 10:07 33.695304 -114.429387 223 4512ft 177kts
23-Sep-18 10:08 33.660358 -114.471143 224 3728ft 177kts
23-Sep-18 10:09 33.644887 -114.521894 259 3420ft 163kts
23-Sep-18 10:10 33.635876 -114.577646 259 2563ft 174kts
23-Sep-18 10:11 33.623067 -114.631720 250 1748ft 153kts
23-Sep-18 10:12 33.616512 -114.670897 266 1086ft 99kts
23-Sep-18 10:13 33.616507 -114.702649 272 501ft 93kts
23-Sep-18 10:14 33.615602 -114.715144 180 401ft 5kts
23-Sep-18 10:15 33.615162 -114.713599 91 401ft 6kts
23-Sep-18 10:16 33.614204 -114.712820 322 401ft 3kts
23-Sep-18 10:17 33.614355 -114.712866 359 401ft 0kts
23-Sep-18 10:18 33.614355 -114.712866 359 401ft 0kts
23-Sep-18 10:19 33.614355 -114.712866 359 401ft 0kts
23-Sep-18 10:20 33.614355 -114.712866 359 401ft 0kts
23-Sep-18 10:21 33.614355 -114.712866 359 401ft 0kts
23-Sep-18 10:22 33.614355 -114.712866 359 401ft 0kts

Navigation Log

Ident Type
Flight plan parsing failed, navigation log unavailable